Welcome to Northern Hawkes Bay. New Zealand.
PWS Header
      nz Flag



Hit Counter


W3C Valid W3C Valid logo


    Wairoa

Select any of the Stations below to visit their websites.










Historic Data from Weather Underground
Select the location of interest below. Wairoa is the default. Please have patience, this Data is slow to load in.
Northern Hawkes Bay Historical Data
Daily Summary for June 19, 2017 Units:  Metric    English   Both
« Previous Day
Next Day »
Daily Weekly Monthly Yearly Custom
  High: Low: Average:
Temperature: 18.3 °C 7.2 °C 11.8 °C
Dew Point: 12.6 °C 6.8 °C 9.2 °C
Humidity: 99% 58% 85%
Wind Speed: 17.2km/h 0.0km/h 6.7km/h
Wind Gust: 28.0km/h - -
Wind- - WNW
Pressure: 1030.4 hPa 1026.0 hPa -
Precipitation: 0.0 mm    
Historical Graphs
 
 
Tabular Data for June 19, 2017
Time Temperature Dew Point Pressure Wind Wind Speed Wind Gust Humidity Rainfall Rate (Hourly) solar
00:01 9.8 °C 8.4 °C 1028.3 hPa NNW 5.0 km/h 9.7 km/h 91% 0.0 mm 0 W/m2
00:06 9.7 °C 8.3 °C 1028.3 hPa NNW 6.1 km/h 9.7 km/h 91% 0.0 mm 0 W/m2
00:11 9.9 °C 8.5 °C 1028.0 hPa NNW 3.5 km/h 9.7 km/h 91% 0.0 mm 0 W/m2
00:16 9.9 °C 8.5 °C 1028.3 hPa NNW 7.2 km/h 9.7 km/h 91% 0.0 mm 0 W/m2
00:21 9.8 °C 8.4 °C 1028.0 hPa NNW 5.0 km/h 9.7 km/h 91% 0.0 mm 0 W/m2
00:26 9.8 °C 8.4 °C 1028.3 hPa NNW 5.0 km/h 9.7 km/h 91% 0.0 mm 0 W/m2
00:31 9.7 °C 8.3 °C 1028.3 hPa NNW 6.1 km/h 9.7 km/h 91% 0.0 mm 0 W/m2
00:36 9.6 °C 8.2 °C 1028.3 hPa North 5.0 km/h 11.1 km/h 91% 0.0 mm 0 W/m2
00:45 9.6 °C 8.2 °C 1028.3 hPa NNW 2.6 km/h 9.7 km/h 91% 0.0 mm 0 W/m2
00:50 9.4 °C 8.0 °C 1028.3 hPa NW 2.6 km/h 7.2 km/h 91% 0.0 mm 0 W/m2
00:55 9.3 °C 7.9 °C 1028.3 hPa WNW 2.6 km/h 5.0 km/h 91% 0.0 mm 0 W/m2
01:00 9.2 °C 7.8 °C 1028.3 hPa West 3.5 km/h 5.0 km/h 91% 0.0 mm 0 W/m2
01:05 9.1 °C 7.9 °C 1028.3 hPa West 2.6 km/h 6.1 km/h 92% 0.0 mm 0 W/m2
01:10 9.1 °C 7.9 °C 1028.3 hPa WNW 2.6 km/h 6.1 km/h 92% 0.0 mm 0 W/m2
01:15 9.1 °C 7.9 °C 1028.0 hPa WNW 1.1 km/h 5.0 km/h 92% 0.0 mm 0 W/m2
01:20 9.0 °C 7.8 °C 1028.0 hPa WNW 2.6 km/h 5.0 km/h 92% 0.0 mm 0 W/m2
01:25 8.9 °C 7.8 °C 1028.0 hPa NW 1.1 km/h 5.0 km/h 93% 0.0 mm 0 W/m2
01:30 8.7 °C 7.8 °C 1028.0 hPa NW 2.6 km/h 5.0 km/h 94% 0.0 mm 0 W/m2
01:35 8.6 °C 7.7 °C 1028.0 hPa WNW 3.5 km/h 6.1 km/h 94% 0.0 mm 0 W/m2
01:40 8.6 °C 7.7 °C 1028.0 hPa WNW 3.5 km/h 6.1 km/h 94% 0.0 mm 0 W/m2
01:45 8.6 °C 7.8 °C 1028.3 hPa WNW 3.5 km/h 7.2 km/h 95% 0.0 mm 0 W/m2
01:50 8.7 °C 7.9 °C 1028.3 hPa NW 3.5 km/h 7.2 km/h 95% 0.0 mm 0 W/m2
01:55 8.8 °C 8.1 °C 1028.0 hPa NW 3.5 km/h 7.2 km/h 95% 0.0 mm 0 W/m2
02:00 8.8 °C 8.1 °C 1028.0 hPa NW 3.5 km/h 7.2 km/h 95% 0.0 mm 0 W/m2
02:05 8.7 °C 7.9 °C 1028.0 hPa NW 6.1 km/h 7.2 km/h 95% 0.0 mm 0 W/m2
02:11 8.7 °C 7.9 °C 1028.0 hPa NW 3.5 km/h 7.2 km/h 95% 0.0 mm 0 W/m2
02:15 8.9 °C 8.2 °C 1028.0 hPa NW 5.0 km/h 7.2 km/h 95% 0.0 mm 0 W/m2
02:20 9.2 °C 8.3 °C 1028.0 hPa NNW 7.2 km/h 11.1 km/h 94% 0.0 mm 0 W/m2
02:25 9.9 °C 9.0 °C 1027.7 hPa NNW 7.2 km/h 13.4 km/h 94% 0.0 mm 0 W/m2
02:31 10.4 °C 9.2 °C 1027.7 hPa NNW 6.1 km/h 13.4 km/h 92% 0.0 mm 0 W/m2
02:35 10.5 °C 8.9 °C 1027.7 hPa NNW 3.5 km/h 15.8 km/h 90% 0.0 mm 0 W/m2
02:40 10.4 °C 8.5 °C 1027.7 hPa NNW 5.0 km/h 15.8 km/h 88% 0.0 mm 0 W/m2
02:46 9.8 °C 7.9 °C 1027.7 hPa NW 5.0 km/h 13.4 km/h 88% 0.0 mm 0 W/m2
02:50 9.4 °C 7.7 °C 1027.7 hPa WNW 5.0 km/h 7.2 km/h 89% 0.0 mm 0 W/m2
02:55 9.1 °C 7.4 °C 1027.7 hPa WNW 3.5 km/h 7.2 km/h 89% 0.0 mm 0 W/m2
03:00 8.9 °C 7.5 °C 1027.3 hPa WNW 3.5 km/h 6.1 km/h 91% 0.0 mm 0 W/m2
03:05 8.8 °C 7.6 °C 1027.3 hPa WNW 2.6 km/h 6.1 km/h 92% 0.0 mm 0 W/m2
03:10 8.6 °C 7.6 °C 1027.3 hPa West 2.6 km/h 6.1 km/h 93% 0.0 mm 0 W/m2
03:15 8.5 °C 7.6 °C 1027.3 hPa West 1.1 km/h 3.5 km/h 94% 0.0 mm 0 W/m2
03:20 8.5 °C 7.6 °C 1027.3 hPa West 3.5 km/h 5.0 km/h 94% 0.0 mm 0 W/m2
03:25 8.5 °C 7.7 °C 1027.3 hPa NW 5.0 km/h 7.2 km/h 95% 0.0 mm 0 W/m2
03:30 8.5 °C 7.7 °C 1027.3 hPa NW 3.5 km/h 7.2 km/h 95% 0.0 mm 0 W/m2
03:35 8.4 °C 7.7 °C 1027.0 hPa NW 5.0 km/h 7.2 km/h 95% 0.0 mm 0 W/m2
03:40 8.3 °C 7.6 °C 1027.0 hPa NW 5.0 km/h 7.2 km/h 95% 0.0 mm 0 W/m2
03:45 8.2 °C 7.4 °C 1027.3 hPa NW 5.0 km/h 7.2 km/h 95% 0.0 mm 0 W/m2
03:50 8.2 °C 7.6 °C 1027.0 hPa NW 6.1 km/h 8.7 km/h 96% 0.0 mm 0 W/m2
04:15 8.0 °C 7.4 °C 1027.0 hPa NW 6.1 km/h 9.7 km/h 96% 0.0 mm 0 W/m2
04:20 7.9 °C 7.4 °C 1027.0 hPa NW 5.0 km/h 9.7 km/h 97% 0.0 mm 0 W/m2
04:25 7.9 °C 7.4 °C 1027.0 hPa NNW 6.1 km/h 9.7 km/h 97% 0.0 mm 0 W/m2
04:30 7.9 °C 7.4 °C 1027.0 hPa NNW 6.1 km/h 9.7 km/h 97% 0.0 mm 0 W/m2
04:35 7.8 °C 7.3 °C 1027.0 hPa NW 3.5 km/h 9.7 km/h 97% 0.0 mm 0 W/m2
04:40 7.8 °C 7.3 °C 1027.0 hPa NW 3.5 km/h 8.7 km/h 97% 0.0 mm 0 W/m2
04:45 7.7 °C 7.3 °C 1027.0 hPa NW 3.5 km/h 7.2 km/h 97% 0.0 mm 0 W/m2
04:50 7.6 °C 7.2 °C 1026.6 hPa NW 3.5 km/h 7.2 km/h 97% 0.0 mm 0 W/m2
04:55 7.6 °C 7.2 °C 1027.0 hPa NW 5.0 km/h 7.2 km/h 97% 0.0 mm 0 W/m2
05:00 7.5 °C 7.1 °C 1026.6 hPa NW 3.5 km/h 7.2 km/h 97% 0.0 mm 0 W/m2
05:05 7.5 °C 7.1 °C 1026.6 hPa NW 5.0 km/h 7.2 km/h 97% 0.0 mm 0 W/m2
05:10 7.4 °C 6.9 °C 1026.6 hPa NW 3.5 km/h 7.2 km/h 97% 0.0 mm 0 W/m2
05:15 7.4 °C 6.9 °C 1026.6 hPa NW 5.0 km/h 7.2 km/h 97% 0.0 mm 0 W/m2
05:20 7.4 °C 6.9 °C 1027.0 hPa NW 3.5 km/h 7.2 km/h 97% 0.0 mm 0 W/m2
05:25 7.3 °C 6.8 °C 1026.6 hPa NW 6.1 km/h 7.2 km/h 97% 0.0 mm 0 W/m2
05:30 7.3 °C 6.8 °C 1026.6 hPa NW 3.5 km/h 7.2 km/h 97% 0.0 mm 0 W/m2
05:35 7.2 °C 6.8 °C 1026.6 hPa NW 3.5 km/h 8.7 km/h 97% 0.0 mm 0 W/m2
05:41 7.2 °C 6.8 °C 1026.6 hPa NW 3.5 km/h 8.7 km/h 97% 0.0 mm 0 W/m2
05:46 7.2 °C 6.8 °C 1026.6 hPa NNW 5.0 km/h 9.7 km/h 97% 0.0 mm 0 W/m2
05:51 7.2 °C 6.8 °C 1026.6 hPa NNW 5.0 km/h 9.7 km/h 97% 0.0 mm 0 W/m2
05:56 7.2 °C 6.8 °C 1026.6 hPa NNW 2.6 km/h 8.7 km/h 97% 0.0 mm 0 W/m2
06:01 7.3 °C 6.8 °C 1026.6 hPa NNW 5.0 km/h 9.7 km/h 97% 0.0 mm 0 W/m2
06:06 7.4 °C 6.9 °C 1026.6 hPa NNW 7.2 km/h 11.1 km/h 97% 0.0 mm 0 W/m2
06:11 7.5 °C 7.1 °C 1026.6 hPa NW 8.7 km/h 11.1 km/h 97% 0.0 mm 0 W/m2
06:16 7.5 °C 7.1 °C 1026.6 hPa NW 6.1 km/h 11.1 km/h 97% 0.0 mm 0 W/m2
06:21 7.5 °C 7.1 °C 1026.6 hPa NW 6.1 km/h 11.1 km/h 97% 0.0 mm 0 W/m2
06:26 7.6 °C 7.2 °C 1026.3 hPa NNW 6.1 km/h 12.2 km/h 97% 0.0 mm 0 W/m2
06:31 7.6 °C 7.2 °C 1026.6 hPa NW 6.1 km/h 12.2 km/h 97% 0.0 mm 0 W/m2
06:36 7.5 °C 7.1 °C 1026.6 hPa NW 6.1 km/h 9.7 km/h 97% 0.0 mm 0 W/m2
06:41 7.3 °C 6.8 °C 1026.6 hPa NW 7.2 km/h 11.1 km/h 97% 0.0 mm 0 W/m2
06:46 7.2 °C 6.8 °C 1026.6 hPa NW 7.2 km/h 13.4 km/h 97% 0.0 mm 0 W/m2
06:51 7.2 °C 6.8 °C 1026.6 hPa NW 9.7 km/h 13.4 km/h 97% 0.0 mm 0 W/m2
06:56 7.2 °C 6.8 °C 1026.6 hPa NW 8.7 km/h 14.8 km/h 97% 0.0 mm 0 W/m2
07:01 7.2 °C 6.8 °C 1026.6 hPa NW 8.7 km/h 14.8 km/h 97% 0.0 mm 0 W/m2
07:06 7.2 °C 6.8 °C 1026.6 hPa NW 8.7 km/h 13.4 km/h 97% 0.0 mm 0 W/m2
07:11 7.3 °C 6.8 °C 1026.6 hPa NW 7.2 km/h 14.8 km/h 97% 0.0 mm 0 W/m2
07:17 7.3 °C 6.8 °C 1026.3 hPa NW 8.7 km/h 14.8 km/h 97% 0.0 mm 0 W/m2
07:22 7.4 °C 6.9 °C 1026.6 hPa NNW 9.7 km/h 15.8 km/h 97% 0.0 mm 0 W/m2
07:27 7.4 °C 6.9 °C 1026.6 hPa NNW 8.7 km/h 15.8 km/h 97% 0.0 mm 0 W/m2
07:32 7.5 °C 7.1 °C 1026.6 hPa NNW 7.2 km/h 17.2 km/h 97% 0.0 mm 0 W/m2
07:37 7.5 °C 7.1 °C 1026.6 hPa NNW 7.2 km/h 17.2 km/h 97% 0.0 mm 1 W/m2
07:42 7.6 °C 7.2 °C 1026.6 hPa NNW 11.1 km/h 14.8 km/h 97% 0.0 mm 6 W/m2
07:47 7.7 °C 7.3 °C 1026.6 hPa NNW 9.7 km/h 14.8 km/h 97% 0.0 mm 16 W/m2
07:52 7.8 °C 7.3 °C 1026.6 hPa NNW 9.7 km/h 14.8 km/h 97% 0.0 mm 12 W/m2
07:57 7.8 °C 7.3 °C 1026.6 hPa NNW 8.7 km/h 14.8 km/h 97% 0.0 mm 16 W/m2
08:02 7.7 °C 7.3 °C 1026.6 hPa NNW 9.7 km/h 14.8 km/h 97% 0.0 mm 16 W/m2
08:07 7.6 °C 7.2 °C 1026.6 hPa NW 8.7 km/h 13.4 km/h 97% 0.0 mm 22 W/m2
08:12 7.6 °C 7.2 °C 1026.6 hPa NW 9.7 km/h 13.4 km/h 97% 0.0 mm 25 W/m2
08:17 7.7 °C 7.3 °C 1027.0 hPa NNW 8.7 km/h 17.2 km/h 97% 0.0 mm 28 W/m2
08:22 7.7 °C 7.3 °C 1026.6 hPa NNW 7.2 km/h 17.2 km/h 97% 0.0 mm 32 W/m2
08:27 7.8 °C 7.3 °C 1026.6 hPa NNW 8.7 km/h 14.8 km/h 97% 0.0 mm 41 W/m2
08:32 8.0 °C 7.6 °C 1027.0 hPa NW 8.7 km/h 14.8 km/h 97% 0.0 mm 46 W/m2
08:37 8.3 °C 7.8 °C 1027.0 hPa NW 7.2 km/h 14.8 km/h 97% 0.0 mm 69 W/m2
08:42 8.5 °C 8.1 °C 1027.0 hPa NNW 6.1 km/h 14.8 km/h 97% 0.0 mm 80 W/m2
08:47 8.8 °C 8.2 °C 1027.0 hPa NNW 7.2 km/h 14.8 km/h 96% 0.0 mm 85 W/m2
08:52 9.0 °C 8.2 °C 1027.0 hPa NNW 8.7 km/h 14.8 km/h 95% 0.0 mm 88 W/m2
08:57 9.1 °C 8.2 °C 1027.0 hPa NNW 8.7 km/h 15.8 km/h 94% 0.0 mm 67 W/m2
09:02 9.2 °C 8.1 °C 1026.6 hPa North 6.1 km/h 15.8 km/h 93% 0.0 mm 59 W/m2
09:07 9.2 °C 8.1 °C 1027.0 hPa NNW 8.7 km/h 13.4 km/h 93% 0.0 mm 65 W/m2
09:12 9.3 °C 8.2 °C 1027.0 hPa NNW 12.2 km/h 15.8 km/h 93% 0.0 mm 70 W/m2
09:17 9.4 °C 8.3 °C 1027.0 hPa NNW 7.2 km/h 15.8 km/h 93% 0.0 mm 73 W/m2
09:22 9.5 °C 8.4 °C 1027.0 hPa NNW 8.7 km/h 15.8 km/h 93% 0.0 mm 94 W/m2
09:27 9.7 °C 8.6 °C 1027.0 hPa NNW 7.2 km/h 12.2 km/h 93% 0.0 mm 110 W/m2
09:32 9.9 °C 8.7 °C 1027.0 hPa NNW 5.0 km/h 12.2 km/h 92% 0.0 mm 142 W/m2
09:37 10.6 °C 9.2 °C 1027.3 hPa North 6.1 km/h 12.2 km/h 91% 0.0 mm 210 W/m2
09:42 11.1 °C 9.3 °C 1027.3 hPa NNW 7.2 km/h 12.2 km/h 89% 0.0 mm 218 W/m2
09:47 11.6 °C 9.5 °C 1027.3 hPa NW 11.1 km/h 13.4 km/h 87% 0.0 mm 163 W/m2
09:52 11.9 °C 9.4 °C 1027.7 hPa NNW 7.2 km/h 14.8 km/h 85% 0.0 mm 148 W/m2
09:57 12.2 °C 9.4 °C 1027.3 hPa NNW 9.7 km/h 15.8 km/h 83% 0.0 mm 104 W/m2
10:02 12.2 °C 9.4 °C 1027.3 hPa NNW 8.7 km/h 17.2 km/h 83% 0.0 mm 118 W/m2
10:07 12.4 °C 9.6 °C 1027.3 hPa NNW 7.2 km/h 17.2 km/h 83% 0.0 mm 124 W/m2
10:12 12.5 °C 9.5 °C 1027.7 hPa North 7.2 km/h 13.4 km/h 82% 0.0 mm 110 W/m2
10:17 12.7 °C 9.7 °C 1027.7 hPa North 7.2 km/h 15.8 km/h 82% 0.0 mm 106 W/m2
10:22 13.0 °C 10.0 °C 1027.3 hPa NNW 7.2 km/h 15.8 km/h 82% 0.0 mm 100 W/m2
10:27 13.6 °C 10.2 °C 1027.3 hPa NNW 6.1 km/h 15.8 km/h 80% 0.0 mm 93 W/m2
10:32 13.9 °C 10.3 °C 1027.7 hPa North 7.2 km/h 15.8 km/h 79% 0.0 mm 86 W/m2
10:37 14.1 °C 10.1 °C 1027.3 hPa NNW 6.1 km/h 14.8 km/h 77% 0.0 mm 88 W/m2
10:42 14.5 °C 10.5 °C 1027.7 hPa NNW 9.7 km/h 14.8 km/h 77% 0.0 mm 88 W/m2
10:47 14.7 °C 10.5 °C 1027.3 hPa NNW 9.7 km/h 17.2 km/h 76% 0.0 mm 91 W/m2
10:52 15.0 °C 10.4 °C 1027.3 hPa North 7.2 km/h 17.2 km/h 74% 0.0 mm 88 W/m2
10:57 15.2 °C 10.6 °C 1027.3 hPa North 7.2 km/h 17.2 km/h 74% 0.0 mm 84 W/m2
11:02 15.2 °C 10.4 °C 1027.3 hPa North 11.1 km/h 18.3 km/h 73% 0.0 mm 84 W/m2
11:07 15.3 °C 10.5 °C 1027.3 hPa North 9.7 km/h 21.9 km/h 73% 0.0 mm 80 W/m2
11:12 15.6 °C 10.8 °C 1027.0 hPa NNW 11.1 km/h 21.9 km/h 73% 0.0 mm 83 W/m2
11:17 15.8 °C 10.8 °C 1027.3 hPa NNW 5.0 km/h 15.8 km/h 72% 0.0 mm 83 W/m2
11:22 16.0 °C 10.8 °C 1027.0 hPa NNW 6.1 km/h 14.8 km/h 71% 0.0 mm 82 W/m2
11:27 16.3 °C 10.8 °C 1027.3 hPa North 9.7 km/h 14.8 km/h 70% 0.0 mm 84 W/m2
11:32 16.5 °C 10.8 °C 1027.0 hPa North 11.1 km/h 17.2 km/h 69% 0.0 mm 89 W/m2
11:37 16.6 °C 10.7 °C 1027.0 hPa NNW 12.2 km/h 19.5 km/h 68% 0.0 mm 91 W/m2
11:42 16.7 °C 10.8 °C 1027.0 hPa NNW 13.4 km/h 19.5 km/h 68% 0.0 mm 97 W/m2
11:47 17.0 °C 10.6 °C 1027.0 hPa NNW 9.7 km/h 19.5 km/h 66% 0.0 mm 100 W/m2
11:52 17.4 °C 10.6 °C 1027.0 hPa North 8.7 km/h 18.3 km/h 64% 0.0 mm 101 W/m2
11:57 17.4 °C 10.6 °C 1027.0 hPa North 11.1 km/h 18.3 km/h 64% 0.0 mm 92 W/m2
12:02 17.5 °C 10.2 °C 1027.0 hPa NNW 15.8 km/h 20.9 km/h 62% 0.0 mm 89 W/m2
12:07 17.5 °C 10.2 °C 1027.0 hPa NW 7.2 km/h 20.9 km/h 62% 0.0 mm 91 W/m2
12:12 18.0 °C 10.4 °C 1026.6 hPa NW 7.2 km/h 20.9 km/h 61% 0.0 mm 90 W/m2
12:17 18.0 °C 9.9 °C 1026.6 hPa NW 11.1 km/h 21.9 km/h 59% 0.0 mm 92 W/m2
12:22 17.8 °C 9.9 °C 1026.6 hPa NW 9.7 km/h 21.9 km/h 60% 0.0 mm 89 W/m2
12:27 18.2 °C 10.6 °C 1026.6 hPa NW 9.7 km/h 19.5 km/h 61% 0.0 mm 92 W/m2
12:32 18.0 °C 9.9 °C 1026.6 hPa NNW 15.8 km/h 23.3 km/h 59% 0.0 mm 87 W/m2
12:37 17.9 °C 10.1 °C 1026.6 hPa NW 8.7 km/h 23.3 km/h 60% 0.0 mm 88 W/m2
12:42 17.9 °C 10.1 °C 1026.6 hPa NW 11.1 km/h 21.9 km/h 60% 0.0 mm 87 W/m2
12:47 18.0 °C 9.9 °C 1026.3 hPa NW 6.1 km/h 20.9 km/h 59% 0.0 mm 87 W/m2
12:52 18.2 °C 9.8 °C 1026.3 hPa NW 11.1 km/h 18.3 km/h 58% 0.0 mm 91 W/m2
12:57 18.1 °C 9.9 °C 1026.3 hPa NW 7.2 km/h 19.5 km/h 59% 0.0 mm 89 W/m2
13:02 18.2 °C 9.8 °C 1026.3 hPa NW 8.7 km/h 19.5 km/h 58% 0.0 mm 88 W/m2
13:07 18.2 °C 9.8 °C 1026.0 hPa NW 7.2 km/h 20.9 km/h 58% 0.0 mm 89 W/m2
13:12 18.3 °C 10.2 °C 1026.3 hPa WNW 8.7 km/h 20.9 km/h 59% 0.0 mm 94 W/m2
13:17 18.3 °C 10.2 °C 1026.0 hPa WNW 11.1 km/h 17.2 km/h 59% 0.0 mm 101 W/m2
13:22 18.0 °C 9.6 °C 1026.0 hPa NW 8.7 km/h 18.3 km/h 58% 0.0 mm 112 W/m2
13:27 18.0 °C 9.9 °C 1026.3 hPa NW 14.8 km/h 18.3 km/h 59% 0.0 mm 116 W/m2
13:32 17.7 °C 9.6 °C 1026.0 hPa NW 13.4 km/h 21.9 km/h 59% 0.0 mm 132 W/m2
13:37 17.8 °C 9.7 °C 1026.0 hPa NW 13.4 km/h 21.9 km/h 59% 0.0 mm 137 W/m2
13:42 18.0 °C 9.9 °C 1026.0 hPa NW 12.2 km/h 19.5 km/h 59% 0.0 mm 141 W/m2
13:47 17.9 °C 10.3 °C 1026.0 hPa NW 11.1 km/h 18.3 km/h 61% 0.0 mm 128 W/m2
13:52 17.4 °C 9.6 °C 1026.0 hPa NW 7.2 km/h 18.3 km/h 60% 0.0 mm 132 W/m2
13:57 17.2 °C 9.6 °C 1026.0 hPa NW 9.7 km/h 17.2 km/h 61% 0.0 mm 145 W/m2
14:02 17.3 °C 9.7 °C 1026.0 hPa NW 8.7 km/h 14.8 km/h 61% 0.0 mm 135 W/m2
14:07 17.2 °C 9.6 °C 1026.0 hPa NW 6.1 km/h 15.8 km/h 61% 0.0 mm 136 W/m2
14:12 17.2 °C 9.6 °C 1026.0 hPa NW 6.1 km/h 18.3 km/h 61% 0.0 mm 165 W/m2
14:17 17.4 °C 9.6 °C 1026.0 hPa WNW 7.2 km/h 18.3 km/h 60% 0.0 mm 145 W/m2
14:22 17.2 °C 9.4 °C 1026.0 hPa WNW 9.7 km/h 17.2 km/h 60% 0.0 mm 124 W/m2
14:27 17.0 °C 9.2 °C 1026.0 hPa NW 11.1 km/h 14.8 km/h 60% 0.0 mm 119 W/m2
14:45 17.1 °C 9.5 °C 1026.0 hPa NW 7.2 km/h 13.4 km/h 61% 0.0 mm 170 W/m2
14:50 17.7 °C 10.3 °C 1026.0 hPa NW 6.1 km/h 13.4 km/h 62% 0.0 mm 211 W/m2
14:55 17.9 °C 10.1 °C 1026.0 hPa NW 7.2 km/h 13.4 km/h 60% 0.0 mm 170 W/m2
15:00 17.9 °C 10.1 °C 1026.3 hPa NW 8.7 km/h 14.8 km/h 60% 0.0 mm 116 W/m2
15:04 17.2 °C 9.6 °C 1026.3 hPa NW 7.2 km/h 14.8 km/h 61% 0.0 mm 80 W/m2
15:10 17.0 °C 9.7 °C 1026.0 hPa NW 7.2 km/h 11.1 km/h 62% 0.0 mm 78 W/m2
15:15 16.8 °C 9.7 °C 1026.0 hPa NNW 5.0 km/h 11.1 km/h 63% 0.0 mm 76 W/m2
15:20 16.8 °C 9.9 °C 1026.0 hPa NNW 3.5 km/h 11.1 km/h 64% 0.0 mm 68 W/m2
15:25 16.7 °C 9.9 °C 1026.0 hPa NNW 2.6 km/h 8.7 km/h 64% 0.0 mm 65 W/m2
15:30 16.7 °C 9.9 °C 1026.3 hPa NW 1.1 km/h 8.7 km/h 64% 0.0 mm 58 W/m2
15:35 16.8 °C 10.2 °C 1026.3 hPa NW 1.1 km/h 6.1 km/h 65% 0.0 mm 58 W/m2
15:40 17.1 °C 10.2 °C 1026.3 hPa Calm   3.5 km/h 64% 0.0 mm 70 W/m2
15:45 18.2 °C 11.3 °C 1026.0 hPa North 2.6 km/h 5.0 km/h 64% 0.0 mm 75 W/m2
15:50 18.2 °C 10.8 °C 1026.3 hPa NW 2.6 km/h 5.0 km/h 62% 0.0 mm 74 W/m2
15:55 17.9 °C 10.3 °C 1026.3 hPa NW 3.5 km/h 6.1 km/h 61% 0.0 mm 66 W/m2
16:00 17.6 °C 10.2 °C 1026.3 hPa NW 2.6 km/h 6.1 km/h 62% 0.0 mm 36 W/m2
16:05 17.4 °C 10.3 °C 1026.3 hPa NW 2.6 km/h 6.1 km/h 63% 0.0 mm 43 W/m2
16:10 17.1 °C 10.0 °C 1026.3 hPa NNW 1.1 km/h 5.0 km/h 63% 0.0 mm 32 W/m2
16:15 16.8 °C 10.2 °C 1026.3 hPa NNW 1.1 km/h 5.0 km/h 65% 0.0 mm 18 W/m2
16:20 16.3 °C 9.9 °C 1026.3 hPa NNW 2.6 km/h 3.5 km/h 66% 0.0 mm 13 W/m2
16:25 15.7 °C 10.1 °C 1026.6 hPa Calm   3.5 km/h 69% 0.0 mm 10 W/m2
16:30 15.3 °C 10.1 °C 1026.6 hPa Calm   3.5 km/h 71% 0.0 mm 7 W/m2
16:35 14.9 °C 10.1 °C 1026.6 hPa NW 1.1 km/h 2.6 km/h 73% 0.0 mm 5 W/m2
16:40 14.5 °C 10.1 °C 1026.6 hPa NW 1.1 km/h 3.5 km/h 75% 0.0 mm 3 W/m2
16:45 14.1 °C 9.9 °C 1027.0 hPa NW 1.1 km/h 3.5 km/h 76% 0.0 mm 1 W/m2
16:50 13.8 °C 10.2 °C 1026.6 hPa NNW 2.6 km/h 3.5 km/h 79% 0.0 mm 0 W/m2
16:55 13.7 °C 10.3 °C 1026.6 hPa NW 1.1 km/h 3.5 km/h 80% 0.0 mm 0 W/m2
17:00 13.4 °C 10.2 °C 1027.0 hPa NNW 1.1 km/h 3.5 km/h 81% 0.0 mm 0 W/m2
17:05 13.0 °C 10.0 °C 1027.0 hPa North 1.1 km/h 3.5 km/h 82% 0.0 mm 0 W/m2
17:10 12.6 °C 9.8 °C 1027.0 hPa North 1.1 km/h 3.5 km/h 83% 0.0 mm 0 W/m2
17:15 12.3 °C 9.7 °C 1027.0 hPa Calm   3.5 km/h 84% 0.0 mm 0 W/m2
17:20 12.1 °C 9.5 °C 1027.0 hPa Calm   3.5 km/h 84% 0.0 mm 0 W/m2
17:25 11.8 °C 9.6 °C 1027.0 hPa NNE 1.1 km/h 2.6 km/h 86% 0.0 mm 0 W/m2
17:30 11.6 °C 9.5 °C 1027.3 hPa NNE 2.6 km/h 3.5 km/h 87% 0.0 mm 0 W/m2
17:35 11.5 °C 9.6 °C 1027.3 hPa NNE 2.6 km/h 3.5 km/h 88% 0.0 mm 0 W/m2
17:40 11.3 °C 9.6 °C 1027.3 hPa North 2.6 km/h 3.5 km/h 89% 0.0 mm 0 W/m2
17:45 11.3 °C 9.7 °C 1027.7 hPa North 1.1 km/h 3.5 km/h 90% 0.0 mm 0 W/m2
17:50 11.3 °C 9.7 °C 1027.7 hPa Calm   3.5 km/h 90% 0.0 mm 0 W/m2
17:55 11.1 °C 9.7 °C 1027.7 hPa NNE 1.1 km/h 3.5 km/h 91% 0.0 mm 0 W/m2
18:00 11.0 °C 9.6 °C 1027.7 hPa Calm   3.5 km/h 91% 0.0 mm 0 W/m2
18:17 10.7 °C 9.6 °C 1028.0 hPa Calm   3.5 km/h 93% 0.0 mm 0 W/m2
18:22 10.6 °C 9.5 °C 1028.3 hPa NNE 1.1 km/h 3.5 km/h 93% 0.0 mm 0 W/m2
18:27 10.6 °C 9.7 °C 1028.3 hPa NNE 2.6 km/h 3.5 km/h 94% 0.0 mm 0 W/m2
18:32 10.5 °C 9.6 °C 1028.3 hPa Calm   3.5 km/h 94% 0.0 mm 0 W/m2
18:37 10.3 °C 9.4 °C 1028.7 hPa NNW 2.6 km/h 3.5 km/h 94% 0.0 mm 0 W/m2
18:42 10.2 °C 9.3 °C 1028.3 hPa North 2.6 km/h 3.5 km/h 94% 0.0 mm 0 W/m2
18:47 10.1 °C 9.3 °C 1028.3 hPa North 2.6 km/h 5.0 km/h 95% 0.0 mm 0 W/m2
18:52 10.0 °C 9.2 °C 1028.7 hPa North 2.6 km/h 5.0 km/h 95% 0.0 mm 0 W/m2
18:57 9.9 °C 9.4 °C 1028.7 hPa North 1.1 km/h 5.0 km/h 97% 0.0 mm 0 W/m2
19:02 9.8 °C 9.5 °C 1028.3 hPa NNW 2.6 km/h 5.0 km/h 98% 0.0 mm 0 W/m2
19:07 9.8 °C 9.5 °C 1028.3 hPa NNW 2.6 km/h 5.0 km/h 98% 0.0 mm 0 W/m2
19:12 9.7 °C 9.6 °C 1028.7 hPa North 2.6 km/h 5.0 km/h 99% 0.0 mm 0 W/m2
19:17 9.4 °C 9.3 °C 1028.7 hPa North 1.1 km/h 5.0 km/h 99% 0.0 mm 0 W/m2
19:22 9.4 °C 9.3 °C 1028.7 hPa NNW 2.6 km/h 3.5 km/h 99% 0.0 mm 0 W/m2
19:27 9.2 °C 9.1 °C 1028.7 hPa North 2.6 km/h 3.5 km/h 99% 0.0 mm 0 W/m2
19:32 9.1 °C 8.9 °C 1028.7 hPa NNE 2.6 km/h 3.5 km/h 99% 0.0 mm 0 W/m2
19:37 9.2 °C 9.1 °C 1028.7 hPa North 1.1 km/h 3.5 km/h 99% 0.0 mm 0 W/m2
19:42 9.4 °C 9.3 °C 1029.0 hPa North 2.6 km/h 3.5 km/h 99% 0.0 mm 0 W/m2
19:47 9.4 °C 9.3 °C 1029.0 hPa North 3.5 km/h 5.0 km/h 99% 0.0 mm 0 W/m2
19:52 10.0 °C 9.8 °C 1029.0 hPa NNW 5.0 km/h 11.1 km/h 99% 0.0 mm 0 W/m2
19:58 11.4 °C 11.1 °C 1029.0 hPa SW 8.7 km/h 18.3 km/h 98% 0.0 mm 0 W/m2
20:03 12.4 °C 11.9 °C 1029.0 hPa SSW 8.7 km/h 19.5 km/h 97% 0.0 mm 0 W/m2
20:08 12.8 °C 12.3 °C 1029.0 hPa South 12.2 km/h 19.5 km/h 97% 0.0 mm 0 W/m2
20:13 13.0 °C 12.6 °C 1029.0 hPa South 9.7 km/h 20.9 km/h 97% 0.0 mm 0 W/m2
20:18 13.1 °C 12.3 °C 1029.3 hPa South 8.7 km/h 20.9 km/h 95% 0.0 mm 0 W/m2
20:23 13.0 °C 12.1 °C 1029.0 hPa South 7.2 km/h 18.3 km/h 94% 0.0 mm 0 W/m2
20:28 13.0 °C 11.7 °C 1029.0 hPa South 15.8 km/h 21.9 km/h 92% 0.0 mm 0 W/m2
20:33 13.0 °C 11.6 °C 1029.3 hPa SSW 13.4 km/h 21.9 km/h 91% 0.0 mm 0 W/m2
20:38 13.0 °C 11.6 °C 1029.3 hPa SSW 8.7 km/h 21.9 km/h 91% 0.0 mm 0 W/m2
20:43 12.8 °C 11.4 °C 1029.3 hPa SSW 13.4 km/h 24.5 km/h 91% 0.0 mm 0 W/m2
20:48 12.9 °C 11.3 °C 1029.7 hPa SSW 14.8 km/h 28.0 km/h 90% 0.0 mm 0 W/m2
20:53 12.9 °C 11.1 °C 1029.7 hPa South 9.7 km/h 28.0 km/h 89% 0.0 mm 0 W/m2
20:58 12.9 °C 11.3 °C 1029.7 hPa South 14.8 km/h 28.0 km/h 90% 0.0 mm 0 W/m2
21:03 12.9 °C 11.4 °C 1029.7 hPa SSW 13.4 km/h 23.3 km/h 91% 0.0 mm 0 W/m2
21:08 13.0 °C 11.4 °C 1029.7 hPa SSW 9.7 km/h 23.3 km/h 90% 0.0 mm 0 W/m2
21:13 13.0 °C 11.4 °C 1029.7 hPa SSW 11.1 km/h 21.9 km/h 90% 0.0 mm 0 W/m2
21:18 13.0 °C 11.6 °C 1029.7 hPa SSW 9.7 km/h 18.3 km/h 91% 0.0 mm 0 W/m2
21:23 12.9 °C 11.6 °C 1030.0 hPa SSW 11.1 km/h 23.3 km/h 92% 0.0 mm 0 W/m2
21:28 12.9 °C 11.4 °C 1030.0 hPa SSW 9.7 km/h 23.3 km/h 91% 0.0 mm 0 W/m2
21:33 12.9 °C 11.4 °C 1030.0 hPa SSW 8.7 km/h 18.3 km/h 91% 0.0 mm 0 W/m2
21:38 12.9 °C 11.4 °C 1030.0 hPa SSW 8.7 km/h 19.5 km/h 91% 0.0 mm 0 W/m2
21:43 12.9 °C 11.4 °C 1030.0 hPa SW 13.4 km/h 19.5 km/h 91% 0.0 mm 0 W/m2
21:48 12.8 °C 11.2 °C 1030.0 hPa SW 13.4 km/h 19.5 km/h 90% 0.0 mm 0 W/m2
21:53 12.8 °C 11.2 °C 1030.0 hPa SSW 13.4 km/h 21.9 km/h 90% 0.0 mm 0 W/m2
21:58 12.8 °C 11.2 °C 1030.0 hPa SW 13.4 km/h 23.3 km/h 90% 0.0 mm 0 W/m2
22:03 12.7 °C 10.9 °C 1030.0 hPa SW 12.2 km/h 24.5 km/h 89% 0.0 mm 0 W/m2
22:08 12.7 °C 10.9 °C 1030.0 hPa SW 14.8 km/h 24.5 km/h 89% 0.0 mm 0 W/m2
22:13 12.7 °C 10.9 °C 1029.7 hPa SW 13.4 km/h 23.3 km/h 89% 0.0 mm 0 W/m2
22:18 12.6 °C 10.8 °C 1030.0 hPa SW 13.4 km/h 24.5 km/h 89% 0.0 mm 0 W/m2
22:23 12.6 °C 10.8 °C 1030.0 hPa SW 12.2 km/h 24.5 km/h 89% 0.0 mm 0 W/m2
22:28 12.6 °C 10.8 °C 1030.0 hPa SW 15.8 km/h 25.6 km/h 89% 0.0 mm 0 W/m2
22:33 12.6 °C 10.7 °C 1030.0 hPa SW 12.2 km/h 25.6 km/h 88% 0.0 mm 0 W/m2
22:38 12.6 °C 10.8 °C 1030.0 hPa SW 13.4 km/h 23.3 km/h 89% 0.0 mm 0 W/m2
22:43 12.6 °C 10.8 °C 1030.0 hPa SW 15.8 km/h 27.0 km/h 89% 0.0 mm 0 W/m2
22:48 12.6 °C 10.8 °C 1029.7 hPa SW 17.2 km/h 27.0 km/h 89% 0.0 mm 0 W/m2
22:53 12.7 °C 10.6 °C 1030.0 hPa SW 13.4 km/h 28.0 km/h 87% 0.0 mm 0 W/m2
22:58 12.7 °C 10.6 °C 1030.0 hPa SW 13.4 km/h 28.0 km/h 87% 0.0 mm 0 W/m2
23:03 12.5 °C 10.2 °C 1030.0 hPa SW 11.1 km/h 28.0 km/h 86% 0.0 mm 0 W/m2
23:08 12.4 °C 9.9 °C 1030.0 hPa WSW 11.1 km/h 21.9 km/h 85% 0.0 mm 0 W/m2
23:13 12.4 °C 9.9 °C 1030.0 hPa West 9.7 km/h 20.9 km/h 85% 0.0 mm 0 W/m2
23:18 12.4 °C 9.8 °C 1030.0 hPa WSW 11.1 km/h 20.9 km/h 84% 0.0 mm 0 W/m2
23:23 12.3 °C 9.7 °C 1030.0 hPa WSW 9.7 km/h 20.9 km/h 84% 0.0 mm 0 W/m2
23:28 12.3 °C 9.7 °C 1030.0 hPa WSW 8.7 km/h 19.5 km/h 84% 0.0 mm 0 W/m2
23:33 12.3 °C 9.7 °C 1030.4 hPa WSW 9.7 km/h 24.5 km/h 84% 0.0 mm 0 W/m2
23:38 12.2 °C 9.6 °C 1030.0 hPa West 7.2 km/h 24.5 km/h 84% 0.0 mm 0 W/m2
23:43 12.2 °C 9.6 °C 1030.0 hPa WSW 13.4 km/h 18.3 km/h 84% 0.0 mm 0 W/m2
23:48 12.2 °C 9.6 °C 1030.0 hPa WSW 9.7 km/h 18.3 km/h 84% 0.0 mm 0 W/m2
23:53 12.2 °C 9.6 °C 1030.0 hPa WSW 8.7 km/h 18.3 km/h 84% 0.0 mm 0 W/m2
23:58 12.2 °C 9.6 °C 1030.4 hPa WSW 2.6 km/h 15.8 km/h 84% 0.0 mm 0 W/m2
Northern Hawkes Bay. New Zealand Historic Data
Compliments of Weather Underground - 2.25 mb